Limekiln, Pennsylvania
Current Conditions -  °F | °C
As of 2:54 AM on Tuesday 27 Jan 2015 (Local Time) from KRDG Reporting Station
Overcast Overcast  
Wind Chill: 19°   Ceiling: 4500
Heat Index: 27°   Visibility: 10mi
Dew Point: 18°   Wind: 8mph
Humidity: 69%   Direction: 340°NNW
Pressure: 29.72"   Gusts: NA
Location:  40.34°N, 75.77°W
Report Text: KRDG 270754Z 34007KT 10SM BKN045 OVC060 M03/M08 A2972 RMK AO2 SLP075 T10281078
Loading
Personal Weather Stations






























Interactive Weather Map New forecast layout! Learn more

10-Day Weather Forecast

Advertisements
Track Severe Weather on mobile